Time,TemperatureF,DewpointF,PressureIn,WindDirection,WindDirectionDegrees,WindSpeedMPH,WindSpeedGustMPH,Humidity,HourlyPrecipIn,Conditions,Clouds,dailyrainin,SoftwareType,DateUTC
2013-08-29 00:02:00,83.7,61.3,28.54,South,180,1.0,5.0,47,0.00,,,0.00,meteohub,2013-08-29 05:02:00,
2013-08-29 00:08:00,83.3,61.0,28.54,SE,135,2.0,4.0,47,0.00,,,0.00,meteohub,2013-08-29 05:08:00,
2013-08-29 00:13:00,83.3,61.5,28.54,South,180,3.0,4.0,48,0.00,,,0.00,meteohub,2013-08-29 05:13:00,
2013-08-29 00:18:00,83.1,61.3,28.54,South,180,5.0,5.0,48,0.00,,,0.00,meteohub,2013-08-29 05:18:00,
2013-08-29 00:23:00,82.9,61.2,28.54,SE,135,1.0,5.0,48,0.00,,,0.00,meteohub,2013-08-29 05:23:00,
2013-08-29 00:28:00,82.9,61.2,28.54,SE,135,4.0,5.0,48,0.00,,,0.00,meteohub,2013-08-29 05:28:00,
2013-08-29 00:33:00,82.9,61.2,28.54,SE,135,4.0,6.0,48,0.00,,,0.00,meteohub,2013-08-29 05:33:00,
2013-08-29 00:38:00,83.1,61.3,28.54,East,90,4.0,6.0,48,0.00,,,0.00,meteohub,2013-08-29 05:38:00,
2013-08-29 00:43:00,83.1,61.3,28.54,SE,135,4.0,6.0,48,0.00,,,0.00,meteohub,2013-08-29 05:43:00,
2013-08-29 00:48:00,82.9,61.2,28.54,SE,135,4.0,6.0,48,0.00,,,0.00,meteohub,2013-08-29 05:48:00,
2013-08-29 00:53:00,82.8,61.0,28.54,SW,225,4.0,7.0,48,0.00,,,0.00,meteohub,2013-08-29 05:53:00,
2013-08-29 00:58:00,82.8,61.0,28.54,East,90,2.0,7.0,48,0.00,,,0.00,meteohub,2013-08-29 05:58:00,
2013-08-29 01:03:00,82.6,61.5,28.54,SW,225,4.0,6.0,49,0.00,,,0.00,meteohub,2013-08-29 06:03:00,
2013-08-29 01:08:00,82.4,61.3,28.54,SSE,158,2.0,6.0,49,0.00,,,0.00,meteohub,2013-08-29 06:08:00,
2013-08-29 01:13:00,82.2,61.2,28.54,SE,135,5.0,6.0,49,0.00,,,0.00,meteohub,2013-08-29 06:13:00,
2013-08-29 01:18:00,82.6,61.5,28.54,South,180,2.0,6.0,49,0.00,,,0.00,meteohub,2013-08-29 06:18:00,
2013-08-29 01:23:00,82.4,60.8,28.54,South,180,1.0,7.0,48,0.00,,,0.00,meteohub,2013-08-29 06:23:00,
2013-08-29 01:28:00,82.4,61.3,28.54,South,180,4.0,7.0,49,0.00,,,0.00,meteohub,2013-08-29 06:28:00,
2013-08-29 01:33:00,82.2,61.2,28.54,South,180,1.0,7.0,49,0.00,,,0.00,meteohub,2013-08-29 06:33:00,
2013-08-29 01:38:00,81.7,60.6,28.54,SE,135,2.0,7.0,49,0.00,,,0.00,meteohub,2013-08-29 06:38:00,
2013-08-29 01:43:00,81.7,61.2,28.54,WNW,293,2.0,7.0,50,0.00,,,0.00,meteohub,2013-08-29 06:43:00,
2013-08-29 01:48:00,81.5,61.0,28.54,SE,135,2.0,4.0,50,0.00,,,0.00,meteohub,2013-08-29 06:48:00,
2013-08-29 01:53:00,81.5,61.0,28.54,SE,135,1.0,4.0,50,0.00,,,0.00,meteohub,2013-08-29 06:53:00,
2013-08-29 01:58:00,81.3,61.0,28.54,South,180,1.0,4.0,50,0.00,,,0.00,meteohub,2013-08-29 06:58:00,
2013-08-29 02:03:00,81.0,61.2,28.55,SE,135,1.0,4.0,51,0.00,,,0.00,meteohub,2013-08-29 07:03:00,
2013-08-29 02:08:00,80.8,61.0,28.54,South,180,1.0,2.0,51,0.00,,,0.00,meteohub,2013-08-29 07:08:00,
2013-08-29 02:13:00,80.6,60.8,28.55,SW,225,1.0,2.0,51,0.00,,,0.00,meteohub,2013-08-29 07:13:00,
2013-08-29 02:18:00,80.4,61.2,28.55,South,180,1.0,2.0,52,0.00,,,0.00,meteohub,2013-08-29 07:18:00,
2013-08-29 02:23:00,80.2,61.0,28.55,SE,135,1.0,2.0,52,0.00,,,0.00,meteohub,2013-08-29 07:23:00,
2013-08-29 02:28:00,80.1,60.8,28.55,South,180,1.0,1.0,52,0.00,,,0.00,meteohub,2013-08-29 07:28:00,
2013-08-29 02:33:00,80.1,61.3,28.55,South,180,1.0,2.0,53,0.00,,,0.00,meteohub,2013-08-29 07:33:00,
2013-08-29 02:38:00,80.1,61.3,28.55,SE,135,1.0,2.0,53,0.00,,,0.00,meteohub,2013-08-29 07:38:00,
2013-08-29 02:43:00,79.7,61.0,28.55,SE,135,1.0,1.0,53,0.00,,,0.00,meteohub,2013-08-29 07:43:00,
2013-08-29 02:48:00,79.2,60.6,28.55,East,90,1.0,1.0,53,0.00,,,0.00,meteohub,2013-08-29 07:48:00,
2013-08-29 02:53:00,79.2,61.2,28.55,SE,135,1.0,1.0,54,0.00,,,0.00,meteohub,2013-08-29 07:53:00,
2013-08-29 02:58:00,79.2,61.2,28.55,East,90,1.0,1.0,54,0.00,,,0.00,meteohub,2013-08-29 07:58:00,
2013-08-29 03:03:00,79.3,61.2,28.55,South,180,1.0,1.0,54,0.00,,,0.00,meteohub,2013-08-29 08:03:00,
2013-08-29 03:08:00,79.2,61.2,28.55,South,180,3.0,3.0,54,0.00,,,0.00,meteohub,2013-08-29 08:08:00,
2013-08-29 03:13:00,79.0,61.0,28.55,SE,135,2.0,3.0,54,0.00,,,0.00,meteohub,2013-08-29 08:13:00,
2013-08-29 03:18:00,78.6,60.6,28.55,East,90,1.0,3.0,54,0.00,,,0.00,meteohub,2013-08-29 08:18:00,
2013-08-29 03:23:00,78.8,61.3,28.55,SE,135,0.0,3.0,55,0.00,,,0.00,meteohub,2013-08-29 08:23:00,
2013-08-29 03:28:00,78.3,60.8,28.55,SE,135,1.0,2.0,55,0.00,,,0.00,meteohub,2013-08-29 08:28:00,
2013-08-29 03:33:00,78.1,61.2,28.55,South,180,1.0,1.0,56,0.00,,,0.00,meteohub,2013-08-29 08:33:00,
2013-08-29 03:38:00,78.1,61.2,28.55,SE,135,1.0,1.0,56,0.00,,,0.00,meteohub,2013-08-29 08:38:00,
2013-08-29 03:43:00,77.9,61.0,28.55,East,90,1.0,1.0,56,0.00,,,0.00,meteohub,2013-08-29 08:43:00,
2013-08-29 03:48:00,77.9,61.0,28.56,East,90,1.0,1.0,56,0.00,,,0.00,meteohub,2013-08-29 08:48:00,
2013-08-29 03:53:00,77.9,61.0,28.56,East,90,1.0,1.0,56,0.00,,,0.00,meteohub,2013-08-29 08:53:00,
2013-08-29 03:58:00,77.7,60.8,28.56,East,90,0.0,1.0,56,0.00,,,0.00,meteohub,2013-08-29 08:58:00,
2013-08-29 04:03:00,77.7,60.8,28.56,SE,135,1.0,1.0,56,0.00,,,0.00,meteohub,2013-08-29 09:03:00,
2013-08-29 04:09:00,77.7,60.8,28.56,SE,135,1.0,1.0,56,0.00,,,0.00,meteohub,2013-08-29 09:09:00,
2013-08-29 04:14:00,77.5,60.6,28.56,SE,135,1.0,1.0,56,0.00,,,0.00,meteohub,2013-08-29 09:14:00,
2013-08-29 04:19:00,77.4,61.0,28.56,SE,135,1.0,1.0,57,0.00,,,0.00,meteohub,2013-08-29 09:19:00,
2013-08-29 04:24:00,77.4,61.0,28.56,East,90,1.0,1.0,57,0.00,,,0.00,meteohub,2013-08-29 09:24:00,
2013-08-29 04:29:00,77.2,60.8,28.55,East,90,0.0,1.0,57,0.00,,,0.00,meteohub,2013-08-29 09:29:00,
2013-08-29 04:34:00,77.0,61.2,28.55,SE,135,1.0,1.0,58,0.00,,,0.00,meteohub,2013-08-29 09:34:00,
2013-08-29 04:39:00,76.8,61.0,28.55,SE,135,1.0,1.0,58,0.00,,,0.00,meteohub,2013-08-29 09:39:00,
2013-08-29 04:44:00,76.8,61.0,28.55,SE,135,0.0,1.0,58,0.00,,,0.00,meteohub,2013-08-29 09:44:00,
2013-08-29 04:49:00,76.5,60.6,28.55,East,90,1.0,1.0,58,0.00,,,0.00,meteohub,2013-08-29 09:49:00,
2013-08-29 04:54:00,76.6,60.8,28.56,South,180,1.0,1.0,58,0.00,,,0.00,meteohub,2013-08-29 09:54:00,
2013-08-29 04:59:00,76.5,61.0,28.56,SE,135,1.0,1.0,59,0.00,,,0.00,meteohub,2013-08-29 09:59:00,
2013-08-29 05:04:00,76.5,61.0,28.56,East,90,2.0,2.0,59,0.00,,,0.00,meteohub,2013-08-29 10:04:00,
2013-08-29 05:09:00,76.3,61.0,28.56,SE,135,1.0,2.0,59,0.00,,,0.00,meteohub,2013-08-29 10:09:00,
2013-08-29 05:14:00,76.5,61.0,28.56,SW,225,1.0,2.0,59,0.00,,,0.00,meteohub,2013-08-29 10:14:00,
2013-08-29 05:19:00,76.3,60.4,28.56,SSW,203,3.0,3.0,58,0.00,,,0.00,meteohub,2013-08-29 10:19:00,
2013-08-29 05:24:00,76.3,61.0,28.56,NE,45,1.0,1.0,59,0.00,,,0.00,meteohub,2013-08-29 10:24:00,
2013-08-29 05:29:00,76.1,60.8,28.56,South,180,1.0,3.0,59,0.00,,,0.00,meteohub,2013-08-29 10:29:00,
2013-08-29 05:34:00,76.3,61.0,28.56,East,90,1.0,4.0,59,0.00,,,0.00,meteohub,2013-08-29 10:34:00,
2013-08-29 05:39:00,76.5,61.0,28.56,South,180,1.0,4.0,59,0.00,,,0.00,meteohub,2013-08-29 10:39:00,
2013-08-29 05:44:00,76.5,61.0,28.56,East,90,1.0,4.0,59,0.00,,,0.00,meteohub,2013-08-29 10:44:00,
2013-08-29 05:49:00,76.1,60.8,28.56,East,90,2.0,3.0,59,0.00,,,0.00,meteohub,2013-08-29 10:49:00,
2013-08-29 05:54:00,76.1,60.8,28.56,East,90,1.0,2.0,59,0.00,,,0.00,meteohub,2013-08-29 10:54:00,
2013-08-29 05:59:00,76.1,60.8,28.56,SE,135,3.0,3.0,59,0.00,,,0.00,meteohub,2013-08-29 10:59:00,
2013-08-29 06:04:00,75.9,60.6,28.56,SE,135,1.0,2.0,59,0.00,,,0.00,meteohub,2013-08-29 11:04:00,
2013-08-29 06:09:00,75.7,60.8,28.56,South,180,1.0,3.0,60,0.00,,,0.00,meteohub,2013-08-29 11:09:00,
2013-08-29 06:14:00,75.7,60.8,28.56,South,180,2.0,3.0,60,0.00,,,0.00,meteohub,2013-08-29 11:14:00,
2013-08-29 06:19:00,75.6,60.6,28.57,South,180,1.0,2.0,60,0.00,,,0.00,meteohub,2013-08-29 11:19:00,
2013-08-29 06:24:00,75.6,60.6,28.57,SE,135,1.0,2.0,60,0.00,,,0.00,meteohub,2013-08-29 11:24:00,
2013-08-29 06:29:00,75.4,61.0,28.57,SE,135,1.0,2.0,61,0.00,,,0.00,meteohub,2013-08-29 11:29:00,
2013-08-29 06:34:00,75.0,60.6,28.56,SE,135,0.0,2.0,61,0.00,,,0.00,meteohub,2013-08-29 11:34:00,
2013-08-29 06:39:00,75.0,60.6,28.57,East,90,1.0,2.0,61,0.00,,,0.00,meteohub,2013-08-29 11:39:00,
2013-08-29 06:44:00,74.7,60.3,28.57,SE,135,1.0,2.0,61,0.00,,,0.00,meteohub,2013-08-29 11:44:00,
2013-08-29 06:49:00,74.3,60.4,28.57,SW,225,1.0,2.0,62,0.00,,,0.00,meteohub,2013-08-29 11:49:00,
2013-08-29 06:54:00,74.3,60.4,28.57,SE,135,1.0,2.0,62,0.00,,,0.00,meteohub,2013-08-29 11:54:00,
2013-08-29 06:59:00,74.1,60.8,28.57,SW,225,0.0,2.0,63,0.00,,,0.00,meteohub,2013-08-29 11:59:00,
2013-08-29 07:04:00,73.9,60.6,28.57,South,180,1.0,2.0,63,0.00,,,0.00,meteohub,2013-08-29 12:04:00,
2013-08-29 07:09:00,74.1,60.8,28.57,SSW,203,1.0,1.0,63,0.00,,,0.00,meteohub,2013-08-29 12:09:00,
2013-08-29 07:14:00,73.9,60.6,28.58,SW,225,1.0,1.0,63,0.00,,,0.00,meteohub,2013-08-29 12:14:00,
2013-08-29 07:19:00,73.8,60.8,28.58,SE,135,1.0,1.0,64,0.00,,,0.00,meteohub,2013-08-29 12:19:00,
2013-08-29 07:24:00,74.3,61.3,28.58,SE,135,1.0,1.0,64,0.00,,,0.00,meteohub,2013-08-29 12:24:00,
2013-08-29 07:29:00,74.3,60.8,28.58,SE,135,0.0,1.0,63,0.00,,,0.00,meteohub,2013-08-29 12:29:00,
2013-08-29 07:34:00,74.5,61.0,28.58,SSE,158,0.0,1.0,63,0.00,,,0.00,meteohub,2013-08-29 12:34:00,
2013-08-29 07:39:00,74.7,61.2,28.58,South,180,0.0,1.0,63,0.00,,,0.00,meteohub,2013-08-29 12:39:00,
2013-08-29 07:44:00,74.7,61.2,28.58,South,180,0.0,1.0,63,0.00,,,0.00,meteohub,2013-08-29 12:44:00,
2013-08-29 07:49:00,74.8,61.3,28.58,South,180,0.0,1.0,63,0.00,,,0.00,meteohub,2013-08-29 12:49:00,
2013-08-29 07:54:00,74.7,61.2,28.58,SE,135,1.0,1.0,63,0.00,,,0.00,meteohub,2013-08-29 12:54:00,
2013-08-29 07:59:00,75.0,61.2,28.58,SSE,158,0.0,1.0,62,0.00,,,0.00,meteohub,2013-08-29 12:59:00,
2013-08-29 08:04:00,75.4,61.5,28.58,SE,135,0.0,1.0,62,0.00,,,0.00,meteohub,2013-08-29 13:04:00,
2013-08-29 08:09:00,75.7,61.3,28.59,South,180,1.0,1.0,61,0.00,,,0.00,meteohub,2013-08-29 13:09:00,
2013-08-29 08:14:00,75.9,61.5,28.59,South,180,0.0,1.0,61,0.00,,,0.00,meteohub,2013-08-29 13:14:00,
2013-08-29 08:19:00,76.5,61.5,28.59,SW,225,1.0,1.0,60,0.00,,,0.00,meteohub,2013-08-29 13:19:00,
2013-08-29 08:24:00,77.0,61.5,28.59,South,180,3.0,3.0,59,0.00,,,0.00,meteohub,2013-08-29 13:24:00,
2013-08-29 08:29:00,77.4,61.3,28.59,South,180,0.0,3.0,58,0.00,,,0.00,meteohub,2013-08-29 13:29:00,
2013-08-29 08:34:00,77.9,61.5,28.59,South,180,3.0,4.0,57,0.00,,,0.00,meteohub,2013-08-29 13:34:00,
2013-08-29 09:00:00,80.2,60.4,28.59,West,270,8.0,8.0,51,0.00,,,0.00,meteohub,2013-08-29 14:00:00,
2013-08-29 09:05:00,81.0,60.6,28.59,SSE,158,5.0,7.0,50,0.00,,,0.00,meteohub,2013-08-29 14:05:00,
2013-08-29 09:29:00,82.4,60.1,28.60,South,180,4.0,8.0,47,0.00,,,0.00,meteohub,2013-08-29 14:29:00,
2013-08-29 09:34:00,83.3,60.4,28.60,SW,225,5.0,8.0,46,0.00,,,0.00,meteohub,2013-08-29 14:34:00,
2013-08-29 09:39:00,83.8,60.3,28.59,SE,135,4.0,8.0,45,0.00,,,0.00,meteohub,2013-08-29 14:39:00,
2013-08-29 09:44:00,84.6,59.5,28.60,SW,225,5.0,8.0,43,0.00,,,0.00,meteohub,2013-08-29 14:44:00,
2013-08-29 10:42:00,89.6,56.7,28.60,SW,225,13.0,16.0,33,0.00,,,0.00,meteohub,2013-08-29 15:42:00,
2013-08-29 11:12:00,91.6,54.9,28.60,SSW,203,14.0,16.0,29,0.00,,,0.00,meteohub,2013-08-29 16:12:00,
2013-08-29 15:34:00,100.2,49.1,28.50,South,180,6.0,12.0,18,0.00,,,0.00,meteohub,2013-08-29 20:34:00,
2013-08-29 15:39:00,100.8,49.5,28.51,South,180,11.0,13.0,18,0.00,,,0.00,meteohub,2013-08-29 20:39:00,
2013-08-29 15:44:00,100.4,49.3,28.51,South,180,8.0,13.0,18,0.00,,,0.00,meteohub,2013-08-29 20:44:00,
2013-08-29 15:49:00,100.9,48.2,28.50,SSE,158,11.0,13.0,17,0.00,,,0.00,meteohub,2013-08-29 20:49:00,
2013-08-29 15:54:00,100.4,46.0,28.50,South,180,11.0,13.0,16,0.00,,,0.00,meteohub,2013-08-29 20:54:00,
2013-08-29 15:59:00,99.9,48.7,28.50,SE,135,13.0,13.0,18,0.00,,,0.00,meteohub,2013-08-29 20:59:00,
2013-08-29 16:04:00,99.3,49.8,28.49,SE,135,4.0,11.0,19,0.00,,,0.00,meteohub,2013-08-29 21:04:00,
2013-08-29 16:09:00,99.1,49.6,28.49,SW,225,1.0,13.0,19,0.00,,,0.00,meteohub,2013-08-29 21:09:00,
2013-08-29 16:14:00,99.1,48.2,28.49,South,180,8.0,13.0,18,0.00,,,0.00,meteohub,2013-08-29 21:14:00,
2013-08-29 16:19:00,99.0,48.0,28.49,SW,225,8.0,13.0,18,0.00,,,0.00,meteohub,2013-08-29 21:19:00,
2013-08-29 16:24:00,98.8,47.8,28.49,SW,225,8.0,13.0,18,0.00,,,0.00,meteohub,2013-08-29 21:24:00,
2013-08-29 16:29:00,99.0,48.0,28.48,WSW,248,4.0,14.0,18,0.00,,,0.00,meteohub,2013-08-29 21:29:00,
2013-08-29 16:34:00,99.5,46.9,28.48,South,180,11.0,14.0,17,0.00,,,0.00,meteohub,2013-08-29 21:34:00,
2013-08-29 16:39:00,99.5,45.3,28.48,NNE,23,11.0,14.0,16,0.00,,,0.00,meteohub,2013-08-29 21:39:00,
2013-08-29 16:44:00,99.9,45.7,28.48,West,270,6.0,12.0,16,0.00,,,0.00,meteohub,2013-08-29 21:44:00,
2013-08-29 16:49:00,100.2,44.2,28.48,SW,225,12.0,12.0,15,0.00,,,0.00,meteohub,2013-08-29 21:49:00,
2013-08-29 16:54:00,100.2,45.9,28.48,South,180,1.0,12.0,16,0.00,,,0.00,meteohub,2013-08-29 21:54:00,
2013-08-29 16:59:00,100.8,44.6,28.48,South,180,8.0,12.0,15,0.00,,,0.00,meteohub,2013-08-29 21:59:00,
2013-08-29 17:04:00,100.9,44.8,28.48,SE,135,4.0,12.0,15,0.00,,,0.00,meteohub,2013-08-29 22:04:00,
2013-08-29 17:09:00,101.3,45.1,28.48,East,90,10.0,11.0,15,0.00,,,0.00,meteohub,2013-08-29 22:09:00,
2013-08-29 17:14:00,100.8,44.6,28.48,East,90,5.0,10.0,15,0.00,,,0.00,meteohub,2013-08-29 22:14:00,
2013-08-29 17:19:00,100.4,46.0,28.48,South,180,7.0,10.0,16,0.00,,,0.00,meteohub,2013-08-29 22:19:00,
2013-08-29 17:24:00,100.6,46.2,28.48,South,180,7.0,10.0,16,0.00,,,0.00,meteohub,2013-08-29 22:24:00,
2013-08-29 17:29:00,99.9,47.3,28.48,South,180,8.0,9.0,17,0.00,,,0.00,meteohub,2013-08-29 22:29:00,
2013-08-29 17:34:00,99.5,46.9,28.48,South,180,4.0,9.0,17,0.00,,,0.00,meteohub,2013-08-29 22:34:00,
2013-08-29 17:39:00,99.5,46.9,28.47,South,180,4.0,9.0,17,0.00,,,0.00,meteohub,2013-08-29 22:39:00,
2013-08-29 17:44:00,99.3,46.8,28.47,South,180,1.0,9.0,17,0.00,,,0.00,meteohub,2013-08-29 22:44:00,
2013-08-29 17:50:00,99.1,46.8,28.47,SE,135,2.0,9.0,17,0.00,,,0.00,meteohub,2013-08-29 22:50:00,
2013-08-29 17:55:00,99.0,45.0,28.47,South,180,6.0,9.0,16,0.00,,,0.00,meteohub,2013-08-29 22:55:00,
2013-08-29 18:00:00,99.0,45.0,28.47,NW,315,7.0,7.0,16,0.00,,,0.00,meteohub,2013-08-29 23:00:00,
2013-08-29 18:05:00,98.8,46.4,28.47,WNW,293,2.0,8.0,17,0.00,,,0.00,meteohub,2013-08-29 23:05:00,
2013-08-29 18:10:00,99.0,46.6,28.47,SSW,203,8.0,8.0,17,0.00,,,0.00,meteohub,2013-08-29 23:10:00,
2013-08-29 18:15:00,99.1,46.8,28.47,South,180,4.0,11.0,17,0.00,,,0.00,meteohub,2013-08-29 23:15:00,
2013-08-29 18:20:00,99.5,46.9,28.47,SE,135,6.0,11.0,17,0.00,,,0.00,meteohub,2013-08-29 23:20:00,
2013-08-29 18:25:00,99.5,46.9,28.46,South,180,2.0,11.0,17,0.00,,,0.00,meteohub,2013-08-29 23:25:00,
2013-08-29 18:30:00,99.7,45.5,28.47,SE,135,7.0,10.0,16,0.00,,,0.00,meteohub,2013-08-29 23:30:00,
2013-08-29 18:35:00,99.5,46.9,28.47,South,180,5.0,10.0,17,0.00,,,0.00,meteohub,2013-08-29 23:35:00,
2013-08-29 18:40:00,99.1,46.8,28.47,SW,225,7.0,10.0,17,0.00,,,0.00,meteohub,2013-08-29 23:40:00,
2013-08-29 18:45:00,99.0,46.6,28.47,South,180,8.0,11.0,17,0.00,,,0.00,meteohub,2013-08-29 23:45:00,
2013-08-29 18:50:00,99.0,46.6,28.46,South,180,8.0,11.0,17,0.00,,,0.00,meteohub,2013-08-29 23:50:00,
2013-08-29 18:55:00,98.4,46.0,28.47,South,180,11.0,11.0,17,0.00,,,0.00,meteohub,2013-08-29 23:55:00,
2013-08-29 19:00:00,98.4,46.0,28.47,South,180,8.0,11.0,17,0.00,,,0.00,meteohub,2013-08-30 00:00:00,
2013-08-29 19:05:00,98.2,47.5,28.46,SE,135,2.0,11.0,18,0.00,,,0.00,meteohub,2013-08-30 00:05:00,
2013-08-29 19:10:00,98.1,47.3,28.46,South,180,6.0,11.0,18,0.00,,,0.00,meteohub,2013-08-30 00:10:00,
2013-08-29 19:15:00,98.1,47.3,28.46,SSE,158,4.0,8.0,18,0.00,,,0.00,meteohub,2013-08-30 00:15:00,
2013-08-29 19:20:00,97.7,47.1,28.47,SE,135,5.0,8.0,18,0.00,,,0.00,meteohub,2013-08-30 00:20:00,
2013-08-29 19:25:00,97.5,46.9,28.47,SE,135,5.0,8.0,18,0.00,,,0.00,meteohub,2013-08-30 00:25:00,
2013-08-29 19:30:00,97.3,48.2,28.47,East,90,2.0,8.0,19,0.00,,,0.00,meteohub,2013-08-30 00:30:00,
2013-08-29 19:35:00,97.0,47.8,28.47,South,180,1.0,8.0,19,0.00,,,0.00,meteohub,2013-08-30 00:35:00,
2013-08-29 19:40:00,96.6,48.9,28.47,East,90,2.0,8.0,20,0.00,,,0.00,meteohub,2013-08-30 00:40:00,
2013-08-29 19:45:00,96.4,48.7,28.47,SE,135,1.0,4.0,20,0.00,,,0.00,meteohub,2013-08-30 00:45:00,
2013-08-29 19:50:00,96.3,48.7,28.47,SE,135,2.0,4.0,20,0.00,,,0.00,meteohub,2013-08-30 00:50:00,
2013-08-29 19:55:00,96.1,49.8,28.47,SW,225,1.0,4.0,21,0.00,,,0.00,meteohub,2013-08-30 00:55:00,
2013-08-29 20:00:00,95.5,49.5,28.47,NE,45,0.0,4.0,21,0.00,,,0.00,meteohub,2013-08-30 01:00:00,
2013-08-29 20:05:00,95.0,50.2,28.48,South,180,2.0,4.0,22,0.00,,,0.00,meteohub,2013-08-30 01:05:00,
2013-08-29 20:11:00,94.6,49.8,28.48,East,90,1.0,2.0,22,0.00,,,0.00,meteohub,2013-08-30 01:11:00,
2013-08-29 20:16:00,94.3,50.7,28.47,East,90,1.0,2.0,23,0.00,,,0.00,meteohub,2013-08-30 01:16:00,
2013-08-29 20:21:00,93.7,50.4,28.47,South,180,1.0,2.0,23,0.00,,,0.00,meteohub,2013-08-30 01:21:00,
2013-08-29 20:26:00,93.2,49.8,28.48,North,0,2.0,2.0,23,0.00,,,0.00,meteohub,2013-08-30 01:26:00,
2013-08-29 20:31:00,93.2,51.1,28.48,East,90,1.0,2.0,24,0.00,,,0.00,meteohub,2013-08-30 01:31:00,
2013-08-29 20:36:00,93.0,50.9,28.48,SE,135,4.0,4.0,24,0.00,,,0.00,meteohub,2013-08-30 01:36:00,
2013-08-29 20:41:00,92.7,50.5,28.48,East,90,2.0,4.0,24,0.00,,,0.00,meteohub,2013-08-30 01:41:00,
2013-08-29 20:46:00,92.5,51.6,28.48,East,90,1.0,4.0,25,0.00,,,0.00,meteohub,2013-08-30 01:46:00,
2013-08-29 20:51:00,92.3,51.4,28.48,East,90,1.0,4.0,25,0.00,,,0.00,meteohub,2013-08-30 01:51:00,
2013-08-29 20:56:00,92.3,51.4,28.48,East,90,1.0,4.0,25,0.00,,,0.00,meteohub,2013-08-30 01:56:00,
2013-08-29 21:01:00,91.9,51.1,28.48,SE,135,1.0,4.0,25,0.00,,,0.00,meteohub,2013-08-30 02:01:00,
2013-08-29 21:06:00,91.8,52.0,28.48,SE,135,1.0,1.0,26,0.00,,,0.00,meteohub,2013-08-30 02:06:00,
2013-08-29 21:11:00,91.6,51.8,28.48,East,90,1.0,2.0,26,0.00,,,0.00,meteohub,2013-08-30 02:11:00,
2013-08-29 21:16:00,91.2,51.6,28.48,NE,45,1.0,2.0,26,0.00,,,0.00,meteohub,2013-08-30 02:16:00,
2013-08-29 21:21:00,91.2,51.6,28.48,SE,135,1.0,2.0,26,0.00,,,0.00,meteohub,2013-08-30 02:21:00,
2013-08-29 21:26:00,90.7,52.2,28.48,East,90,1.0,2.0,27,0.00,,,0.00,meteohub,2013-08-30 02:26:00,
2013-08-29 21:31:00,90.3,51.8,28.48,SE,135,3.0,3.0,27,0.00,,,0.00,meteohub,2013-08-30 02:31:00,
2013-08-29 21:36:00,90.5,52.0,28.49,East,90,1.0,3.0,27,0.00,,,0.00,meteohub,2013-08-30 02:36:00,
2013-08-29 21:41:00,90.7,53.1,28.49,SE,135,2.0,3.0,28,0.00,,,0.00,meteohub,2013-08-30 02:41:00,
2013-08-29 21:46:00,90.5,52.9,28.49,SE,135,2.0,4.0,28,0.00,,,0.00,meteohub,2013-08-30 02:46:00,
2013-08-29 21:51:00,90.1,52.7,28.49,East,90,2.0,5.0,28,0.00,,,0.00,meteohub,2013-08-30 02:51:00,
2013-08-29 21:56:00,89.8,52.3,28.49,SE,135,1.0,7.0,28,0.00,,,0.00,meteohub,2013-08-30 02:56:00,
2013-08-29 22:01:00,89.6,53.1,28.50,SE,135,3.0,7.0,29,0.00,,,0.00,meteohub,2013-08-30 03:01:00,
2013-08-29 22:06:00,89.4,53.1,28.49,East,90,1.0,6.0,29,0.00,,,0.00,meteohub,2013-08-30 03:06:00,
2013-08-29 22:11:00,89.6,54.1,28.50,SSE,158,3.0,6.0,30,0.00,,,0.00,meteohub,2013-08-30 03:11:00,
2013-08-29 22:16:00,89.1,53.6,28.50,SE,135,7.0,7.0,30,0.00,,,0.00,meteohub,2013-08-30 03:16:00,
2013-08-29 22:21:00,88.7,54.1,28.50,East,90,5.0,7.0,31,0.00,,,0.00,meteohub,2013-08-30 03:21:00,
2013-08-29 22:26:00,88.7,54.1,28.50,East,90,2.0,7.0,31,0.00,,,0.00,meteohub,2013-08-30 03:26:00,
2013-08-29 22:31:00,88.3,53.8,28.50,SE,135,2.0,7.0,31,0.00,,,0.00,meteohub,2013-08-30 03:31:00,
2013-08-29 22:36:00,88.0,54.5,28.49,East,90,1.0,6.0,32,0.00,,,0.00,meteohub,2013-08-30 03:36:00,
2013-08-29 22:41:00,88.0,54.5,28.49,SE,135,2.0,6.0,32,0.00,,,0.00,meteohub,2013-08-30 03:41:00,
2013-08-29 22:46:00,88.0,55.2,28.50,SE,135,1.0,6.0,33,0.00,,,0.00,meteohub,2013-08-30 03:46:00,
2013-08-29 22:51:00,87.6,55.0,28.50,NE,45,5.0,6.0,33,0.00,,,0.00,meteohub,2013-08-30 03:51:00,
2013-08-29 22:56:00,87.3,55.4,28.50,SE,135,4.0,5.0,34,0.00,,,0.00,meteohub,2013-08-30 03:56:00,
2013-08-29 23:01:00,87.4,55.6,28.49,SE,135,4.0,6.0,34,0.00,,,0.00,meteohub,2013-08-30 04:01:00,
2013-08-29 23:02:00,87.3,55.4,28.49,SE,135,4.0,6.0,34,0.00,,,0.00,meteohub,2013-08-30 04:02:00,
2013-08-29 23:07:00,87.1,55.2,28.50,SW,225,7.0,7.0,34,0.00,,,0.00,meteohub,2013-08-30 04:07:00,
2013-08-29 23:12:00,87.3,56.3,28.49,SSE,158,4.0,7.0,35,0.00,,,0.00,meteohub,2013-08-30 04:12:00,
2013-08-29 23:17:00,87.1,56.1,28.49,SE,135,1.0,7.0,35,0.00,,,0.00,meteohub,2013-08-30 04:17:00,
2013-08-29 23:22:00,86.7,56.7,28.49,ESE,113,4.0,7.0,36,0.00,,,0.00,meteohub,2013-08-30 04:22:00,
2013-08-29 23:27:00,86.9,56.7,28.49,NE,45,3.0,8.0,36,0.00,,,0.00,meteohub,2013-08-30 04:27:00,
2013-08-29 23:32:00,86.7,56.7,28.49,SE,135,1.0,8.0,36,0.00,,,0.00,meteohub,2013-08-30 04:32:00,
2013-08-29 23:37:00,86.5,57.2,28.50,South,180,4.0,8.0,37,0.00,,,0.00,meteohub,2013-08-30 04:37:00,
2013-08-29 23:42:00,86.5,57.2,28.50,East,90,2.0,7.0,37,0.00,,,0.00,meteohub,2013-08-30 04:42:00,
2013-08-29 23:47:00,86.4,57.0,28.50,SSE,158,2.0,5.0,37,0.00,,,0.00,meteohub,2013-08-30 04:47:00,
2013-08-29 23:52:00,86.4,57.7,28.50,East,90,3.0,5.0,38,0.00,,,0.00,meteohub,2013-08-30 04:52:00,
2013-08-29 23:57:00,86.2,57.6,28.50,SE,135,1.0,5.0,38,0.00,,,0.00,meteohub,2013-08-30 04:57:00,